Disclaimer

Please do not use the information listed here in-flight or in-navigation, as they are not provided to us by the airports but are provided by volunteers, so they might be outdated.

Search


Regions


Airport information page

Radio informations:
PASCUA TWR - 118.1 MHz
PASCUA RDO - 127.3 MHz
PASCUA APP - 127.3 MHz

Airport informations:
Latitude: 27° 09' 53.25" S
Longitude: 109° 25' 18.59" W
Elevation: 227 feet - 69 meters
Operating hours: Remarks
Operating agency: Military-civil joint use airport
Timezone: UTC-6(-5DT)
Fuel: Jet A1, without icing nhibitor.

100/130 MIL Spec, low lead, aviation gasoline (BLUE)

Runway information:
10/28 - 10885 x 145 feet< - >3318 x 44 meters

Recent METARs:
SCIP 202100Z 31012KT 9999 BKN020 25/18 Q1020 NOSIG
SCIP 202200Z 33012KT 9999 BKN020 24/18 Q1019 NOSIG
SCIP 202200Z 33012KT 9999 BKN020 24/18 Q1019 NOSIG

Airport on the map: